createdAt,value
2018-10-02T00:01:45.287Z,1.26
2018-10-02T00:07:40.279Z,1.23
2018-10-02T00:13:35.281Z,1.31
2018-10-02T00:19:30.311Z,1.26
2018-10-02T00:25:25.331Z,1.18
2018-10-02T00:31:20.360Z,1.06
2018-10-02T00:37:15.294Z,1.02
2018-10-02T00:43:10.314Z,1.17
2018-10-02T00:49:05.413Z,1.09
2018-10-02T00:55:00.296Z,1.01
2018-10-02T01:00:55.321Z,1.02
2018-10-02T01:06:50.300Z,1.02
2018-10-02T01:12:45.300Z,0.87
2018-10-02T01:18:40.320Z,0.85
2018-10-02T01:24:35.339Z,0.95
2018-10-02T01:30:30.370Z,0.73
2018-10-02T01:36:25.325Z,0.86
2018-10-02T01:42:20.343Z,0.8
2018-10-02T01:48:15.359Z,0.81
2018-10-02T01:54:10.409Z,0.94
2018-10-02T02:00:05.417Z,0.84
2018-10-02T02:06:00.355Z,0.88
2018-10-02T02:11:55.403Z,0.88
2018-10-02T02:17:50.351Z,0.86
2018-10-02T02:23:45.374Z,0.95
2018-10-02T02:29:40.368Z,0.93
2018-10-02T02:35:35.376Z,0.97
2018-10-02T02:41:30.371Z,1.13
2018-10-02T02:47:25.360Z,1.29
2018-10-02T02:53:20.406Z,1.3
2018-10-02T02:59:15.395Z,1.3
2018-10-02T03:05:10.430Z,1.27
2018-10-02T03:11:05.385Z,1.26
2018-10-02T03:17:00.385Z,1.38
2018-10-02T03:22:55.401Z,1.37
2018-10-02T03:28:50.396Z,1.18
2018-10-02T03:34:45.406Z,1.8
2018-10-02T03:40:40.419Z,1.65
2018-10-02T03:46:35.414Z,1.82
2018-10-02T03:52:30.408Z,1.42
2018-10-02T03:58:25.423Z,1.46
2018-10-02T04:04:20.503Z,1.32
2018-10-02T04:10:15.456Z,1.07
2018-10-02T04:16:10.415Z,0.9
2018-10-02T04:22:05.461Z,0.74
2018-10-02T04:28:00.550Z,0.7
2018-10-02T04:33:55.577Z,0.79
2018-10-02T04:39:50.496Z,0.77
2018-10-02T04:45:45.435Z,0.9
2018-10-02T04:51:40.457Z,0.79
2018-10-02T04:57:35.472Z,0.87
2018-10-02T05:03:30.489Z,0.69
2018-10-02T05:09:25.452Z,0.71
2018-10-02T05:15:20.508Z,0.8
2018-10-02T05:21:15.479Z,0.87
2018-10-02T05:27:10.566Z,0.82
2018-10-02T05:33:05.484Z,0.97
2018-10-02T05:39:00.491Z,0.79
2018-10-02T05:44:55.521Z,0.93
2018-10-02T05:50:50.496Z,1.01
2018-10-02T05:56:45.497Z,1.03
2018-10-02T06:02:40.535Z,1.18
2018-10-02T06:08:35.500Z,1.37
2018-10-02T06:14:30.532Z,1.6
2018-10-02T06:20:25.542Z,1.78
2018-10-02T06:26:20.548Z,1.74
2018-10-02T06:32:15.503Z,1.51
2018-10-02T06:38:10.591Z,1.29
2018-10-02T06:44:05.579Z,1.43
2018-10-02T06:50:00.541Z,1.22
2018-10-02T06:55:55.589Z,1.34
2018-10-02T07:01:50.534Z,1.1
2018-10-02T07:07:45.527Z,1.17
2018-10-02T07:13:40.552Z,1.12
2018-10-02T07:19:35.553Z,1.28
2018-10-02T07:25:30.580Z,0.97
2018-10-02T07:31:25.548Z,1.18
2018-10-02T07:37:20.554Z,1.4
2018-10-02T07:43:15.566Z,1.18
2018-10-02T07:49:10.605Z,1
2018-10-02T07:55:05.607Z,1.37
2018-10-02T08:01:00.594Z,1.27
2018-10-02T08:06:55.581Z,1.18
2018-10-02T08:12:50.575Z,1.36
2018-10-02T08:18:45.574Z,1.39
2018-10-02T08:24:40.586Z,1.47
2018-10-02T08:30:35.603Z,1.56
2018-10-02T08:36:30.661Z,1.86
2018-10-02T08:42:25.599Z,1.8
2018-10-02T08:48:20.616Z,1.7
2018-10-02T08:54:15.627Z,1.35
2018-10-02T09:00:10.613Z,1.21
2018-10-02T09:06:05.602Z,1.27
2018-10-02T09:12:00.636Z,1.4
2018-10-02T09:17:55.642Z,1.21
2018-10-02T09:23:50.669Z,1.16
2018-10-02T09:29:45.663Z,1.2
2018-10-02T09:35:40.628Z,1.18
2018-10-02T09:41:35.720Z,1.32
2018-10-02T09:47:30.665Z,1.66
2018-10-02T09:53:25.649Z,1.28
2018-10-02T09:59:20.640Z,1.41
2018-10-02T10:05:15.647Z,1.28
2018-10-02T10:11:10.630Z,1.23
2018-10-02T10:17:05.686Z,1.08
2018-10-02T10:23:00.667Z,1.14
2018-10-02T10:28:55.727Z,1.19
2018-10-02T10:34:50.783Z,1.17
2018-10-02T10:40:45.733Z,1.28
2018-10-02T10:46:40.843Z,1.08
2018-10-02T10:52:35.687Z,1.22
2018-10-02T10:58:30.762Z,1.07
2018-10-02T11:04:25.744Z,1.05
2018-10-02T11:10:20.729Z,0.98
2018-10-02T11:16:15.725Z,1.06
2018-10-02T11:22:10.723Z,1.04
2018-10-02T11:28:05.696Z,1.27
2018-10-02T11:34:00.718Z,1.5
2018-10-02T11:39:55.718Z,1.32
2018-10-02T11:45:50.717Z,1.38
2018-10-02T11:51:45.721Z,1.33
2018-10-02T11:57:40.854Z,1.44
2018-10-02T12:03:35.749Z,1.46
2018-10-02T12:09:30.783Z,1.29
2018-10-02T12:15:25.767Z,1.17
2018-10-02T12:21:20.791Z,1.23
2018-10-02T12:27:15.754Z,1.25
2018-10-02T12:33:10.749Z,1.08
2018-10-02T12:39:05.752Z,1.1
2018-10-02T12:45:00.756Z,1.62
2018-10-02T12:50:55.764Z,1.01
2018-10-02T12:56:50.764Z,0.88
2018-10-02T13:02:45.782Z,0.95
2018-10-02T13:08:40.766Z,0.75
2018-10-02T13:14:35.802Z,0.82
2018-10-02T13:20:30.771Z,0.67
2018-10-02T13:26:25.774Z,0.73
2018-10-02T13:32:20.864Z,0.89
2018-10-02T13:38:15.835Z,0.97
2018-10-02T13:44:10.855Z,1.14
2018-10-02T13:50:05.864Z,1.11
2018-10-02T13:56:00.805Z,0.85
2018-10-02T14:01:55.823Z,1.06
2018-10-02T14:07:50.822Z,1.35
2018-10-02T14:13:45.835Z,1.21
2018-10-02T14:19:40.920Z,1.31
2018-10-02T14:25:35.818Z,1.5
2018-10-02T14:31:30.857Z,1.16
2018-10-02T14:37:25.826Z,1.36
2018-10-02T14:43:20.973Z,1.22
2018-10-02T14:49:15.900Z,1.61
2018-10-02T14:55:10.863Z,1.68
2018-10-02T15:01:05.849Z,1.35
2018-10-02T15:07:00.889Z,1.46
2018-10-02T15:12:55.856Z,1.31
2018-10-02T15:18:50.922Z,1.52
2018-10-02T15:24:45.878Z,1.31
2018-10-02T15:30:40.877Z,1.37
2018-10-02T15:36:35.862Z,1.78
2018-10-02T15:42:30.884Z,1.2
2018-10-02T15:48:25.914Z,1.77
2018-10-02T15:54:20.886Z,1.46
2018-10-02T16:00:15.888Z,1.37
2018-10-02T16:06:10.881Z,1.6
2018-10-02T16:12:05.905Z,1.45
2018-10-02T16:18:00.979Z,1.64
2018-10-02T16:23:55.905Z,1.63
2018-10-02T16:29:50.962Z,1.73
2018-10-02T16:35:45.968Z,1.82
2018-10-02T16:41:40.939Z,1.35
2018-10-02T16:47:35.946Z,1.63
2018-10-02T16:53:30.946Z,1.49
2018-10-02T16:59:25.965Z,1.7
2018-10-02T17:05:20.941Z,1.95
2018-10-02T17:11:15.937Z,2.14
2018-10-02T17:17:10.935Z,2.2
2018-10-02T17:23:05.956Z,1.81
2018-10-02T17:29:01.056Z,1.79
2018-10-02T17:34:55.974Z,1.7
2018-10-02T17:40:50.957Z,1.53
2018-10-02T17:46:45.975Z,1.75
2018-10-02T17:52:40.954Z,1.67
2018-10-02T17:58:35.966Z,1.53
2018-10-02T18:04:30.983Z,1.48
2018-10-02T18:10:25.983Z,1.62
2018-10-02T18:16:20.961Z,1.65
2018-10-02T18:22:16.012Z,1.52
2018-10-02T18:28:10.998Z,1.42
2018-10-02T18:34:06.003Z,1.66
2018-10-02T18:40:01.029Z,1.77
2018-10-02T18:45:55.984Z,1.59
2018-10-02T18:51:51.029Z,1.24
2018-10-02T18:57:46.008Z,1.43
2018-10-02T19:03:41.034Z,1.57
2018-10-02T19:09:36.080Z,1.5
2018-10-02T19:15:31.028Z,1.54
2018-10-02T19:21:26.043Z,1.5
2018-10-02T19:27:21.095Z,1.56
2018-10-02T19:33:16.040Z,1.53
2018-10-02T19:39:11.028Z,1.74
2018-10-02T19:45:06.058Z,1.42
2018-10-02T19:51:01.047Z,1.44
2018-10-02T19:56:56.061Z,1.36
2018-10-02T20:02:51.060Z,1.45
2018-10-02T20:08:46.032Z,1.4
2018-10-02T20:14:41.066Z,1.38
2018-10-02T20:20:36.072Z,1.09
2018-10-02T20:26:31.087Z,1.05
2018-10-02T20:32:26.074Z,1.11
2018-10-02T20:38:21.062Z,1.11
2018-10-02T20:44:16.084Z,1.15
2018-10-02T20:50:11.089Z,1.19
2018-10-02T20:56:06.096Z,1.25
2018-10-02T21:02:01.089Z,1.11
2018-10-02T21:07:56.071Z,1.12
2018-10-02T21:13:51.092Z,1.1
2018-10-02T21:19:46.098Z,1.24
2018-10-02T21:25:41.130Z,1.04
2018-10-02T21:31:36.161Z,1.31
2018-10-02T21:37:31.167Z,1.12
2018-10-02T21:43:26.112Z,1.23
2018-10-02T21:49:21.114Z,1.26
2018-10-02T21:55:16.120Z,1.19
2018-10-02T22:01:11.123Z,1.19
2018-10-02T22:07:06.190Z,1.24
2018-10-02T22:13:01.175Z,0.94
2018-10-02T22:18:56.203Z,1.01
2018-10-02T22:24:51.184Z,1.22
2018-10-02T22:30:46.197Z,1.11
2018-10-02T22:36:41.255Z,1.27
2018-10-02T22:42:36.188Z,1.19
2018-10-02T22:48:31.193Z,1.09
2018-10-02T22:54:26.252Z,1.25
2018-10-02T23:00:21.181Z,1.29
2018-10-02T23:06:16.190Z,1.29
2018-10-02T23:12:11.201Z,1.45
2018-10-02T23:18:06.215Z,1.34
2018-10-02T23:24:01.219Z,1.55
2018-10-02T23:29:56.275Z,1.8
2018-10-02T23:35:51.253Z,1.49
2018-10-02T23:41:46.189Z,1.4
2018-10-02T23:47:41.193Z,1.85
2018-10-02T23:53:36.192Z,1.48
2018-10-02T23:59:31.209Z,1.91
